Aeroporto :
LOGIN :

Iscrizione | Disclaimer

   EN    FR    IT 

 










Sommario :    VFR   VFR Marginale   IFR   IFR Intensivo   IFR Molto Intensivo
Visibilità : 
Base nubi : 
>= 8 km
>= 3000ft
5 / 8 km
1000 / 3000 ft
1500m / 5 km
500 / 1000 ft
800 / 1500m
200 / 500 ft
< 800m
< 200 ft
Simboli :   Temporali  Nebbia  Neve Forte  Precipitazioni Forti  Vento > 20 kt
SIGMETs :   Varie  Temporali  Ghiacco  Turbolenza  Onda orograficha  Ceneri Vulcaniche






- Altitudine del aeroporto : 390 ft
- Codice IATA : NQY


EGHQ - Newquay

ULTIMO METAR :
  • 140220Z AUTO 27007KT 0100 FG VV/// 17/17 Q1013

METARs OBSOLETI :
  • 140150Z AUTO 27005KT 0100 FG VV/// 18/18 Q1014
  • 140120Z AUTO 26005KT 0100 FG VV/// 18/18 Q1014
  • 140050Z AUTO 26006KT 0100 FG VV/// 18/18 Q1014
  • 140020Z AUTO 25006KT 0100 FG VV/// 18/18 Q1013
  • 132350Z AUTO 29005KT 0150 FG VV/// 18/18 Q1014

TAF TAF EGHQ
Valido dal 14 a 03 ore il 14 a 12 ore UTC


140156Z 1403/1412 25004KT 0200 FG BKN000
PROB30
TEMPO 1403/1412 VRB15G25KT 3000 +TSRAGR



MetMap, La meteo Aeronautica in un colpo d'occhio ! - Copyright ORBIFLY Dicembre 2007 - Disclaimer

ORBIFLY MET'MAP TEAM :

Programmazione e sviluppo : Alexandra Zaïnal
Concezione : Baudouin d'Aumeries
Aiuto per la programmazione : Marc-Olivier Méhu
Supporto tecnico e logistico : Manuel Goepfert
Aiuto per la traduzione : Arnaldo La Scala

Contatto : metmap@orbifly.com




FONTI E CREDITI :

   NOAA